Time;durP1;ratioP1;P1;durP2;ratioP2;P2;SDS_P1;SDS_P2;PMS_P1;PMS_P2;Temp;Humidity;BMP_temperature;BMP_pressure;BME280_temperature;BME280_humidity;BME280_pressure;Samples;Min_cycle;Max_cycle;Signal;HPM_P1;HPM_P2
2021/08/11 00:00:11;;;;;;;16.40;10.45;;;;;;;14.06;87.70;100251.84;5084916;28;20358;-65
2021/08/11 00:02:37;;;;;;;22.90;11.15;;;;;;;14.04;87.64;100237.13;5084659;28;20032;-65
2021/08/11 00:05:03;;;;;;;16.30;10.98;;;;;;;14.10;87.70;100247.41;5084794;28;20020;-65
2021/08/11 00:07:28;;;;;;;16.23;9.73;;;;;;;14.06;87.80;100246.63;5084661;28;20107;-65
2021/08/11 00:09:54;;;;;;;13.00;8.52;;;;;;;14.07;87.73;100243.16;5084563;28;20017;-65
2021/08/11 00:12:19;;;;;;;14.38;10.27;;;;;;;14.06;88.12;100244.03;5084496;28;20035;-65
2021/08/11 00:14:45;;;;;;;16.00;10.70;;;;;;;14.07;88.11;100239.66;5084766;28;20039;-63
2021/08/11 00:17:10;;;;;;;18.73;9.57;;;;;;;14.03;87.80;100246.72;5084257;28;20032;-62
2021/08/11 00:19:36;;;;;;;17.33;12.45;;;;;;;14.02;88.12;100250.22;5084633;28;20479;-62
2021/08/11 00:22:01;;;;;;;18.33;12.50;;;;;;;13.98;88.42;100249.44;5084259;28;20021;-61
2021/08/11 00:24:27;;;;;;;19.20;10.73;;;;;;;13.92;88.67;100240.91;5084443;28;20048;-62
2021/08/11 00:26:52;;;;;;;18.58;10.70;;;;;;;13.93;89.01;100245.25;5084161;28;20033;-62
2021/08/11 00:29:17;;;;;;;25.65;10.82;;;;;;;13.94;89.06;100252.16;5084396;28;20017;-62
2021/08/11 00:31:43;;;;;;;19.83;10.35;;;;;;;13.97;88.85;100241.66;5084211;28;20024;-63
2021/08/11 00:34:08;;;;;;;23.10;12.85;;;;;;;13.87;89.46;100241.88;5084276;28;20024;-63
2021/08/11 00:36:34;;;;;;;22.42;11.77;;;;;;;13.84;89.43;100234.13;5084423;28;20028;-63
2021/08/11 00:38:59;;;;;;;20.70;13.32;;;;;;;13.90;89.43;100240.94;5084120;28;20031;-63
2021/08/11 00:41:25;;;;;;;26.15;15.45;;;;;;;13.93;89.19;100242.63;5083968;28;20048;-63
2021/08/11 00:43:52;;;;;;;22.58;13.60;;;;;;;13.93;89.23;100245.25;5084303;28;20035;-62
2021/08/11 00:46:18;;;;;;;27.10;13.40;;;;;;;13.96;89.32;100248.59;5083898;28;20044;-63
2021/08/11 00:48:44;;;;;;;30.85;15.65;;;;;;;13.91;89.37;100245.28;5083905;28;20472;-62
2021/08/11 00:51:09;;;;;;;23.90;14.20;;;;;;;13.92;89.63;100253.94;5083968;28;20032;-62
2021/08/11 00:53:38;;;;;;;29.88;16.45;;;;;;;13.90;89.56;100247.94;5084123;28;20029;-63
2021/08/11 00:56:04;;;;;;;30.52;14.73;;;;;;;13.87;89.56;100246.22;5083697;28;20380;-60
2021/08/11 00:58:30;;;;;;;27.63;15.15;;;;;;;13.95;89.16;100251.25;5084221;28;20058;-61
2021/08/11 01:00:59;;;;;;;23.73;13.93;;;;;;;13.96;89.04;100250.38;5083605;28;20032;-61
2021/08/11 01:03:26;;;;;;;26.75;16.08;;;;;;;13.94;89.25;100257.38;5083635;28;20024;-61
2021/08/11 01:05:53;;;;;;;26.83;16.63;;;;;;;13.95;89.22;100251.25;5083581;28;20024;-62
2021/08/11 01:08:20;;;;;;;25.02;15.02;;;;;;;13.99;89.09;100252.91;5083891;28;20024;-62
2021/08/11 01:10:50;;;;;;;23.20;13.00;;;;;;;13.97;89.12;100250.34;5083702;28;20012;-62
2021/08/11 01:13:16;;;;;;;20.05;12.93;;;;;;;14.04;88.87;100263.25;5083689;28;20025;-61
2021/08/11 01:15:45;;;;;;;25.00;15.52;;;;;;;14.02;89.36;100265.03;5083649;28;20032;-61
2021/08/11 01:18:12;;;;;;;25.63;15.02;;;;;;;14.04;89.29;100265.84;5083484;28;20044;-63
2021/08/11 01:20:50;;;;;;;20.90;13.05;;;;;;;14.06;89.16;100261.44;5083666;28;20020;-63
2021/08/11 01:23:19;;;;;;;23.05;15.10;;;;;;;14.04;89.35;100253.63;5083229;28;20046;-62
2021/08/11 01:25:50;;;;;;;26.63;15.90;;;;;;;14.07;89.23;100256.19;5082209;28;20021;-62
2021/08/11 01:28:33;;;;;;;25.05;15.27;;;;;;;14.12;89.19;100256.91;5083659;28;20099;-62
2021/08/11 01:31:07;;;;;;;26.90;14.77;;;;;;;14.12;89.09;100249.09;5082361;28;20267;-62
2021/08/11 01:33:51;;;;;;;26.27;15.38;;;;;;;14.16;89.10;100249.00;5083386;28;20047;-62
2021/08/11 01:36:20;;;;;;;25.08;14.80;;;;;;;14.15;89.05;100245.56;5083405;28;20039;-62
2021/08/11 01:38:54;;;;;;;27.92;16.08;;;;;;;14.17;89.11;100254.19;5083294;28;20055;-62
2021/08/11 01:41:28;;;;;;;24.30;14.90;;;;;;;14.19;88.89;100246.31;5083388;28;20031;-62
2021/08/11 01:43:56;;;;;;;25.42;15.05;;;;;;;14.19;88.95;100255.00;5083349;28;20033;-62
2021/08/11 01:46:23;;;;;;;22.80;12.18;;;;;;;14.22;88.79;100256.66;5083318;28;20055;-61
2021/08/11 01:48:50;;;;;;;22.30;13.98;;;;;;;14.19;88.65;100255.00;5083435;28;20024;-63
2021/08/11 01:51:16;;;;;;;25.63;14.75;;;;;;;14.17;89.05;100253.34;5083229;28;20036;-66
2021/08/11 01:53:42;;;;;;;24.42;13.77;;;;;;;14.20;88.70;100261.09;5083235;28;20046;-63
2021/08/11 01:56:08;;;;;;;24.13;14.02;;;;;;;14.27;88.79;100267.00;5083139;28;20055;-62
2021/08/11 01:58:33;;;;;;;24.98;13.73;;;;;;;14.20;88.77;100258.47;5083246;28;20074;-62
2021/08/11 02:01:01;;;;;;;23.48;13.73;;;;;;;14.18;89.19;100255.03;5083182;28;20021;-62
2021/08/11 02:03:27;;;;;;;24.92;13.73;;;;;;;14.17;88.78;100245.50;5083147;28;20097;-62
2021/08/11 02:05:53;;;;;;;23.58;13.80;;;;;;;14.17;89.01;100250.72;5083214;28;20316;-62
2021/08/11 02:08:21;;;;;;;24.08;14.68;;;;;;;14.17;89.06;100248.13;5083214;28;20025;-61
2021/08/11 02:10:48;;;;;;;26.92;14.18;;;;;;;14.12;88.99;100243.84;5082935;28;20099;-62
2021/08/11 02:13:15;;;;;;;22.13;13.57;;;;;;;14.16;88.88;100243.78;5082896;28;20484;-62
2021/08/11 02:15:41;;;;;;;28.15;14.40;;;;;;;14.16;88.77;100249.00;5083098;28;20061;-62
2021/08/11 02:18:06;;;;;;;22.75;14.27;;;;;;;14.16;88.99;100252.47;5083087;28;20083;-62
2021/08/11 02:20:32;;;;;;;23.25;13.75;;;;;;;14.19;88.97;100251.53;5081647;28;20086;-62
2021/08/11 02:22:57;;;;;;;19.95;14.68;;;;;;;14.20;88.94;100253.25;5082949;28;20052;-63
2021/08/11 02:25:23;;;;;;;27.83;15.80;;;;;;;14.22;88.59;100252.31;5082999;28;20028;-62
2021/08/11 02:28:06;;;;;;;21.33;13.93;;;;;;;14.27;88.76;100257.41;5082931;28;20082;-62
2021/08/11 02:30:57;;;;;;;22.08;14.13;;;;;;;14.31;88.66;100256.44;5082916;28;20021;-63
2021/08/11 02:33:38;;;;;;;21.73;14.77;;;;;;;14.35;88.56;100257.22;5083849;28;20020;-64
2021/08/11 02:36:11;;;;;;;37.75;17.83;;;;;;;14.37;88.47;100252.81;5086659;28;20026;-63
2021/08/11 02:38:39;;;;;;;25.30;16.60;;;;;;;14.40;88.24;100257.09;5086568;28;20024;-63
2021/08/11 02:41:17;;;;;;;26.48;16.73;;;;;;;14.40;88.47;100271.00;5086365;28;20020;-63
2021/08/11 02:43:50;;;;;;;30.73;17.02;;;;;;;14.40;88.30;100268.41;5086579;28;20278;-64
2021/08/11 02:46:20;;;;;;;27.48;15.85;;;;;;;14.42;88.25;100273.56;5086450;28;20023;-66
2021/08/11 02:49:20;;;;;;;26.75;15.75;;;;;;;14.40;88.32;100265.78;5084894;28;20031;-66
2021/08/11 02:51:45;;;;;;;28.38;15.93;;;;;;;14.36;88.51;100270.22;5064801;28;20507;-66
2021/08/11 02:54:13;;;;;;;27.75;16.70;;;;;;;14.35;88.76;100273.75;5085138;28;20246;-67
2021/08/11 02:56:48;;;;;;;30.13;17.65;;;;;;;14.29;88.86;100280.88;5084908;28;20024;-67
2021/08/11 02:59:15;;;;;;;29.67;17.30;;;;;;;14.27;89.48;100280.03;5086180;28;20025;-66
2021/08/11 03:01:45;;;;;;;28.60;16.95;;;;;;;14.32;89.15;100279.03;5068005;28;20035;-66
2021/08/11 03:04:11;;;;;;;34.28;17.90;;;;;;;14.35;89.28;100284.19;5101737;28;20031;-65
2021/08/11 03:06:37;;;;;;;31.27;16.60;;;;;;;14.38;89.19;100278.88;5085812;28;20031;-66
2021/08/11 03:09:02;;;;;;;31.52;17.73;;;;;;;14.41;89.31;100287.53;5101747;28;20080;-66
2021/08/11 03:11:29;;;;;;;33.53;18.80;;;;;;;14.35;89.35;100280.72;5085655;28;20054;-65
2021/08/11 03:13:55;;;;;;;42.05;21.00;;;;;;;14.35;89.52;100284.19;5085919;28;20035;-66
2021/08/11 03:16:20;;;;;;;52.92;23.33;;;;;;;14.32;89.50;100281.66;5085738;28;20029;-64
2021/08/11 03:18:48;;;;;;;56.05;18.98;;;;;;;14.34;89.66;100282.47;5085526;28;20094;-66
2021/08/11 03:21:14;;;;;;;46.55;20.45;;;;;;;14.32;89.59;100283.41;5085606;28;20085;-66
2021/08/11 03:23:39;;;;;;;44.10;20.00;;;;;;;14.24;89.83;100287.09;5085659;28;20028;-68
2021/08/11 03:26:04;;;;;;;86.28;26.15;;;;;;;14.23;89.92;100287.13;5085543;28;20445;-67
2021/08/11 03:28:30;;;;;;;54.60;21.70;;;;;;;14.10;90.08;100277.00;5084930;28;20031;-68
2021/08/11 03:30:55;;;;;;;44.00;22.02;;;;;;;14.18;90.32;100294.22;5084356;28;20017;-68
2021/08/11 03:33:21;;;;;;;85.60;27.05;;;;;;;14.18;90.60;100292.47;5085375;28;20144;-69
2021/08/11 03:35:46;;;;;;;60.15;22.95;;;;;;;14.18;90.68;100283.75;5085420;28;20028;-68
2021/08/11 03:38:11;;;;;;;55.88;23.70;;;;;;;14.21;90.87;100292.38;5085398;28;20059;-69
2021/08/11 03:40:37;;;;;;;33.92;19.77;;;;;;;14.20;90.92;100295.03;5085374;28;20487;-68
2021/08/11 03:43:02;;;;;;;47.33;21.58;;;;;;;14.13;90.78;100283.88;5085448;28;20029;-66
2021/08/11 03:45:28;;;;;;;62.92;25.08;;;;;;;14.16;91.27;100298.59;5084545;28;20567;-67
2021/08/11 03:47:53;;;;;;;42.00;20.80;;;;;;;14.17;91.10;100300.34;5085000;28;20040;-66
2021/08/11 03:50:21;;;;;;;69.78;25.52;;;;;;;14.22;91.16;100308.88;5085266;28;20024;-67
2021/08/11 03:52:47;;;;;;;59.45;24.27;;;;;;;14.25;91.49;100300.97;5084844;28;20116;-67
2021/08/11 03:55:14;;;;;;;50.42;22.30;;;;;;;14.30;91.33;100304.34;5085024;28;20538;-67
2021/08/11 03:57:40;;;;;;;52.25;23.23;;;;;;;14.32;91.33;100309.50;5084828;28;20020;-67
2021/08/11 04:00:06;;;;;;;42.38;21.73;;;;;;;14.27;91.39;100307.03;5084923;28;20016;-68
2021/08/11 04:02:32;;;;;;;45.00;21.95;;;;;;;14.25;91.27;100312.28;5084502;28;20107;-67
2021/08/11 04:04:57;;;;;;;52.70;22.98;;;;;;;14.21;91.47;100315.00;5083740;28;20032;-68
2021/08/11 04:07:22;;;;;;;50.60;22.92;;;;;;;14.17;91.40;100321.22;5083360;28;20025;-67
2021/08/11 04:09:48;;;;;;;41.60;21.40;;;;;;;14.12;91.56;100316.13;5083316;28;20029;-68
2021/08/11 04:12:13;;;;;;;39.50;21.85;;;;;;;14.12;91.54;100314.34;5084377;28;20028;-67
2021/08/11 04:14:39;;;;;;;44.78;23.08;;;;;;;14.12;91.48;100322.19;5083486;28;20032;-67
2021/08/11 04:17:04;;;;;;;60.47;24.23;;;;;;;14.13;91.80;100321.31;5084294;28;20056;-68
2021/08/11 04:19:30;;;;;;;44.55;23.10;;;;;;;14.18;91.81;100312.47;5084359;28;20043;-67
2021/08/11 04:21:55;;;;;;;37.63;21.40;;;;;;;14.17;91.73;100314.22;5066384;28;20016;-67
2021/08/11 04:24:20;;;;;;;52.92;24.33;;;;;;;14.16;91.67;100322.97;5084397;28;20028;-67
2021/08/11 04:26:46;;;;;;;46.92;24.05;;;;;;;14.15;91.47;100328.22;5082965;28;20020;-67
2021/08/11 04:29:11;;;;;;;42.08;23.02;;;;;;;14.10;91.72;100329.22;5084341;28;20045;-67
2021/08/11 04:31:36;;;;;;;38.75;23.30;;;;;;;14.11;91.92;100328.31;5084111;28;20016;-67
2021/08/11 04:34:02;;;;;;;62.58;26.45;;;;;;;14.08;92.06;100323.16;5084098;28;20025;-69
2021/08/11 04:36:27;;;;;;;46.15;23.50;;;;;;;14.13;92.17;100336.97;5082798;28;20117;-69
2021/08/11 04:38:53;;;;;;;52.83;24.73;;;;;;;14.09;92.12;100330.09;5082772;28;20162;-70
2021/08/11 04:41:18;;;;;;;45.00;23.15;;;;;;;14.11;91.89;100335.25;5084224;28;20060;-69
2021/08/11 04:43:44;;;;;;;34.15;20.92;;;;;;;14.10;92.36;100321.38;5083902;28;20043;-69
2021/08/11 04:46:09;;;;;;;49.22;23.48;;;;;;;14.17;92.49;100327.28;5083871;28;20055;-70
2021/08/11 04:48:34;;;;;;;51.78;23.27;;;;;;;14.27;92.56;100327.91;5083688;28;20029;-70
2021/08/11 04:51:00;;;;;;;61.38;26.23;;;;;;;14.36;92.90;100329.44;5084091;28;20079;-70
2021/08/11 04:53:25;;;;;;;44.65;20.77;;;;;;;14.36;92.74;100332.91;5082701;28;20097;-69
2021/08/11 04:55:51;;;;;;;32.75;19.13;;;;;;;14.38;92.43;100335.47;5084111;28;20024;-70
2021/08/11 04:58:18;;;;;;;39.22;19.77;;;;;;;14.34;92.31;100324.28;5082918;28;20044;-69
2021/08/11 05:00:43;;;;;;;35.65;20.65;;;;;;;14.39;92.83;100326.75;5083683;28;20032;-70
2021/08/11 05:03:09;;;;;;;38.88;20.98;;;;;;;14.42;92.80;100334.50;5082380;28;20020;-69
2021/08/11 05:05:36;;;;;;;40.30;21.35;;;;;;;14.50;92.87;100344.75;5083836;28;20028;-69
2021/08/11 05:08:01;;;;;;;45.33;23.05;;;;;;;14.56;92.88;100349.81;5082337;28;20028;-68
2021/08/11 05:10:27;;;;;;;38.83;22.02;;;;;;;14.55;92.89;100355.97;5083788;28;20032;-69
2021/08/11 05:12:52;;;;;;;58.55;25.42;;;;;;;14.52;93.02;100353.41;5083474;28;20088;-68
2021/08/11 05:15:17;;;;;;;32.35;19.77;;;;;;;14.56;92.73;100356.78;5082672;28;20031;-68
2021/08/11 05:17:43;;;;;;;30.48;18.23;;;;;;;14.54;92.77;100355.97;5083169;28;20662;-68
2021/08/11 05:20:10;;;;;;;40.38;19.55;;;;;;;14.52;92.83;100356.00;5083345;28;20058;-68
2021/08/11 05:22:35;;;;;;;36.85;20.48;;;;;;;14.56;93.28;100352.44;5083751;28;20096;-68
2021/08/11 05:25:00;;;;;;;32.38;19.58;;;;;;;14.63;93.09;100364.44;5083538;28;20485;-69
2021/08/11 05:27:27;;;;;;;62.42;24.85;;;;;;;14.70;93.14;100366.88;5083583;28;20036;-68
2021/08/11 05:29:52;;;;;;;37.67;20.45;;;;;;;14.79;93.41;100371.88;5082212;28;20080;-68
2021/08/11 05:32:18;;;;;;;56.08;24.70;;;;;;;14.90;93.37;100368.16;5083231;28;20025;-68
2021/08/11 05:34:44;;;;;;;96.25;29.70;;;;;;;15.06;93.33;100371.19;5083522;28;20050;-68
2021/08/11 05:37:10;;;;;;;57.03;23.98;;;;;;;15.16;93.38;100364.78;5083476;28;20056;-68
2021/08/11 05:39:35;;;;;;;35.75;21.73;;;;;;;15.28;93.34;100365.34;5083502;28;20082;-69
2021/08/11 05:42:01;;;;;;;38.08;22.33;;;;;;;15.41;93.77;100371.97;5083405;28;20016;-69
2021/08/11 05:44:26;;;;;;;33.03;18.98;;;;;;;15.48;93.43;100370.00;5083143;28;20047;-69
2021/08/11 05:46:52;;;;;;;26.92;16.55;;;;;;;15.42;93.18;100365.81;5083245;28;20036;-68
2021/08/11 05:49:17;;;;;;;25.23;17.58;;;;;;;15.49;93.24;100379.56;5083269;28;20416;-68
2021/08/11 05:51:42;;;;;;;23.42;16.02;;;;;;;15.56;93.29;100383.72;5081762;28;20052;-68
2021/08/11 05:54:08;;;;;;;33.90;18.85;;;;;;;15.67;93.15;100380.75;5081871;28;20030;-68
2021/08/11 05:56:34;;;;;;;28.10;17.80;;;;;;;15.80;93.02;100378.63;5083186;28;20044;-68
2021/08/11 05:59:00;;;;;;;24.95;16.75;;;;;;;15.86;93.14;100377.59;5081661;28;20056;-68
2021/08/11 06:01:26;;;;;;;25.83;18.80;;;;;;;15.88;92.95;100381.00;5083122;28;20025;-67
2021/08/11 06:03:56;;;;;;;29.45;20.30;;;;;;;15.95;93.00;100374.69;5082978;28;20025;-68
2021/08/11 06:06:23;;;;;;;24.00;18.20;;;;;;;16.17;93.21;100378.41;5083000;28;20046;-67
2021/08/11 06:08:48;;;;;;;23.73;17.20;;;;;;;16.38;93.21;100383.84;5084896;28;20040;-68
2021/08/11 06:11:13;;;;;;;25.35;16.73;;;;;;;16.52;93.51;100386.03;5085723;28;20111;-67
2021/08/11 06:13:39;;;;;;;23.55;17.20;;;;;;;16.67;93.36;100387.25;5086924;28;20032;-68
2021/08/11 06:16:04;;;;;;;24.60;15.68;;;;;;;16.87;93.25;100389.19;5086951;28;20039;-67
2021/08/11 06:18:30;;;;;;;21.88;15.30;;;;;;;17.06;93.25;100389.38;5086675;28;20393;-67
2021/08/11 06:20:55;;;;;;;20.20;15.70;;;;;;;17.29;93.30;100382.47;5085490;28;20024;-66
2021/08/11 06:23:21;;;;;;;18.13;15.15;;;;;;;17.46;93.39;100371.34;5086709;28;20017;-67
2021/08/11 06:25:46;;;;;;;16.20;12.23;;;;;;;18.19;94.71;100380.81;5086930;28;20020;-67
2021/08/11 06:28:11;;;;;;;14.48;11.80;;;;;;;19.13;95.72;100383.94;5086764;28;20035;-67
2021/08/11 06:30:37;;;;;;;12.80;9.13;;;;;;;20.04;96.54;100393.81;5085357;28;20174;-64
2021/08/11 06:33:02;;;;;;;10.07;7.18;;;;;;;20.83;95.36;100390.81;5086533;28;20024;-65
2021/08/11 06:35:28;;;;;;;12.18;7.85;;;;;;;21.63;93.39;100390.97;5086763;28;20028;-65
2021/08/11 06:37:53;;;;;;;8.27;6.72;;;;;;;22.33;92.43;100393.31;5085053;28;20538;-68
2021/08/11 06:40:21;;;;;;;8.25;6.35;;;;;;;23.13;89.76;100384.22;5086523;28;20099;-65
2021/08/11 06:42:47;;;;;;;9.40;5.32;;;;;;;23.77;86.55;100381.06;5086497;28;20388;-66
2021/08/11 06:45:13;;;;;;;8.57;4.93;;;;;;;24.08;82.46;100387.97;5086497;28;20052;-67
2021/08/11 06:47:39;;;;;;;7.55;4.70;;;;;;;24.18;79.13;100378.50;5086244;28;20059;-67
2021/08/11 06:50:06;;;;;;;5.95;3.58;;;;;;;24.12;78.71;100378.88;5086180;28;20062;-67
2021/08/11 06:52:34;;;;;;;7.25;4.07;;;;;;;24.06;76.14;100388.06;5084659;28;20035;-66
2021/08/11 06:55:04;;;;;;;6.05;4.13;;;;;;;23.29;73.18;100402.63;5086312;28;20044;-66
2021/08/11 06:57:30;;;;;;;9.95;4.43;;;;;;;22.99;76.11;100391.19;5086270;28;20025;-67
2021/08/11 06:59:55;;;;;;;5.53;3.78;;;;;;;23.40;79.64;100399.34;5086143;28;20019;-66
2021/08/11 07:02:21;;;;;;;6.97;3.30;;;;;;;24.02;79.11;100398.06;5085872;28;20100;-67
2021/08/11 07:04:46;;;;;;;7.65;3.67;;;;;;;25.03;77.67;100407.38;5086185;28;20600;-67
2021/08/11 07:07:12;;;;;;;8.20;3.47;;;;;;;25.79;74.69;100402.00;5084885;28;20048;-67
2021/08/11 07:09:37;;;;;;;7.22;3.40;;;;;;;26.38;71.46;100403.97;5086081;28;20031;-68
2021/08/11 07:12:03;;;;;;;8.20;3.95;;;;;;;26.46;66.74;100405.09;5085988;28;20012;-67
2021/08/11 07:14:29;;;;;;;8.75;4.32;;;;;;;25.71;62.00;100399.91;5086065;28;20016;-67
2021/08/11 07:16:55;;;;;;;8.43;3.92;;;;;;;25.10;65.45;100416.59;5085574;28;20028;-67
2021/08/11 07:19:20;;;;;;;8.73;4.28;;;;;;;25.09;68.17;100409.59;5085380;28;20075;-67
2021/08/11 07:21:46;;;;;;;7.25;4.03;;;;;;;25.28;61.31;100402.97;5085330;28;20377;-67
2021/08/11 07:24:11;;;;;;;6.03;3.13;;;;;;;25.21;61.61;100405.22;5085859;28;20107;-67
2021/08/11 07:26:36;;;;;;;7.10;4.03;;;;;;;24.84;58.56;100408.63;5085221;28;20024;-66
2021/08/11 07:29:02;;;;;;;6.32;3.40;;;;;;;24.51;61.05;100409.00;5083152;28;20027;-67
2021/08/11 07:31:27;;;;;;;8.23;3.10;;;;;;;25.02;62.05;100403.03;5084859;28;20025;-68
2021/08/11 07:33:53;;;;;;;4.40;2.30;;;;;;;25.92;61.25;100399.31;5085427;28;20020;-69
2021/08/11 07:36:18;;;;;;;5.10;2.30;;;;;;;26.84;58.35;100412.91;5085729;28;20027;-68
2021/08/11 07:38:43;;;;;;;4.82;2.72;;;;;;;27.24;53.42;100405.47;5085459;28;20021;-68
2021/08/11 07:41:09;;;;;;;5.57;2.90;;;;;;;27.09;52.74;100411.03;5085101;28;20017;-67
2021/08/11 07:43:34;;;;;;;4.90;2.92;;;;;;;27.06;54.20;100416.59;5085131;28;20028;-67
2021/08/11 07:46:00;;;;;;;5.43;2.80;;;;;;;26.73;53.99;100405.75;5085306;28;20082;-67
2021/08/11 07:48:25;;;;;;;5.35;2.42;;;;;;;26.34;53.66;100416.69;5084700;28;20479;-67
2021/08/11 07:50:50;;;;;;;5.18;2.50;;;;;;;25.57;53.35;100418.66;5084959;28;20024;-66
2021/08/11 07:53:16;;;;;;;6.28;2.80;;;;;;;24.75;54.69;100423.34;5084984;28;20385;-68
2021/08/11 07:55:41;;;;;;;4.50;1.92;;;;;;;23.94;56.26;100426.84;5085219;28;20055;-65
2021/08/11 07:58:07;;;;;;;9.25;2.78;;;;;;;23.11;57.29;100428.44;5085117;28;20088;-66
2021/08/11 08:00:32;;;;;;;6.75;2.63;;;;;;;22.21;59.40;100435.38;5085032;28;20027;-64
2021/08/11 08:02:57;;;;;;;9.55;3.40;;;;;;;21.33;61.75;100435.75;5084787;28;20028;-64
2021/08/11 08:05:23;;;;;;;10.07;3.70;;;;;;;20.70;63.60;100449.50;5084613;28;20494;-66
2021/08/11 08:07:48;;;;;;;12.57;4.30;;;;;;;19.96;65.93;100449.50;5084119;28;20431;-67
2021/08/11 08:10:15;;;;;;;9.25;4.45;;;;;;;19.56;67.00;100449.56;5083861;28;20012;-67
2021/08/11 08:12:43;;;;;;;9.40;4.82;;;;;;;19.24;68.35;100447.47;5084643;28;20016;-67
2021/08/11 08:15:09;;;;;;;8.65;5.03;;;;;;;18.96;68.90;100448.66;5084515;28;20492;-65
2021/08/11 08:17:34;;;;;;;13.18;6.00;;;;;;;18.72;70.00;100451.41;5084232;28;20040;-66
2021/08/11 08:20:00;;;;;;;7.05;5.10;;;;;;;18.47;71.38;100447.16;5084719;28;20025;-65
2021/08/11 08:22:26;;;;;;;12.05;5.45;;;;;;;18.32;72.17;100438.97;5084329;28;20032;-66
2021/08/11 08:24:54;;;;;;;10.80;5.70;;;;;;;18.23;72.22;100436.72;5084489;28;20024;-66
2021/08/11 08:27:24;;;;;;;15.43;6.20;;;;;;;18.11;73.19;100440.66;5084401;28;20017;-65
2021/08/11 08:29:51;;;;;;;8.15;5.40;;;;;;;18.03;73.85;100443.59;5084551;28;20071;-65
2021/08/11 08:32:17;;;;;;;12.38;5.70;;;;;;;18.05;74.21;100446.16;5082936;28;20032;-65
2021/08/11 08:34:43;;;;;;;12.55;6.45;;;;;;;18.08;74.39;100451.28;5084245;28;20021;-65
2021/08/11 08:37:08;;;;;;;14.25;6.88;;;;;;;18.15;74.65;100457.19;5084351;28;20107;-66
2021/08/11 08:39:34;;;;;;;17.38;7.05;;;;;;;18.26;75.07;100469.91;5083060;28;20025;-65
2021/08/11 08:42:00;;;;;;;18.55;6.13;;;;;;;18.42;75.38;100467.50;5084480;28;20021;-65
2021/08/11 08:44:25;;;;;;;13.95;5.03;;;;;;;18.94;76.00;100464.50;5084379;28;20032;-67
2021/08/11 08:46:52;;;;;;;9.27;4.30;;;;;;;19.51;74.21;100470.84;5082652;28;20020;-67
2021/08/11 08:49:19;;;;;;;10.50;5.05;;;;;;;19.66;72.79;100465.81;5084304;28;20016;-68
2021/08/11 08:51:53;;;;;;;12.02;4.57;;;;;;;19.49;72.02;100472.69;5084101;28;20101;-68
2021/08/11 08:54:24;;;;;;;11.35;4.85;;;;;;;19.11;72.02;100473.47;5082725;28;20056;-69
2021/08/11 08:56:49;;;;;;;15.10;6.30;;;;;;;18.83;72.98;100477.25;5084066;28;20028;-68
2021/08/11 08:59:15;;;;;;;10.07;4.70;;;;;;;18.64;73.94;100477.16;5084203;28;20036;-68
2021/08/11 09:01:40;;;;;;;10.63;4.50;;;;;;;18.58;74.03;100475.63;5083973;28;20040;-67
2021/08/11 09:04:06;;;;;;;12.32;4.93;;;;;;;18.47;74.21;100481.31;5083786;28;20477;-66
2021/08/11 09:06:40;;;;;;;8.73;4.93;;;;;;;18.30;74.10;100474.13;5082533;28;20021;-66
2021/08/11 09:09:07;;;;;;;8.75;5.05;;;;;;;18.18;74.88;100483.31;5084134;28;20027;-66
2021/08/11 09:11:34;;;;;;;10.73;5.85;;;;;;;18.01;75.56;100469.06;5083848;28;20388;-65
2021/08/11 09:14:16;;;;;;;11.52;5.50;;;;;;;17.97;75.70;100483.25;5083932;28;20032;-65
2021/08/11 09:17:00;;;;;;;12.07;5.28;;;;;;;17.88;75.97;100479.19;5083749;28;20450;-65
2021/08/11 09:19:36;;;;;;;9.02;5.18;;;;;;;17.90;76.09;100484.38;5083815;28;20531;-65
2021/08/11 09:22:04;;;;;;;12.45;5.90;;;;;;;17.89;76.92;100480.03;5083688;28;20021;-66
2021/08/11 09:24:36;;;;;;;16.70;6.18;;;;;;;17.86;77.23;100480.16;5083980;28;20424;-66
2021/08/11 09:27:15;;;;;;;17.55;6.95;;;;;;;17.84;76.53;100486.31;5083870;28;20028;-65
2021/08/11 09:30:00;;;;;;;12.50;6.47;;;;;;;17.82;76.92;100496.03;5083727;28;20025;-65
2021/08/11 09:32:25;;;;;;;14.27;6.18;;;;;;;17.86;77.07;100504.63;5083607;28;20111;-66
2021/08/11 09:34:53;;;;;;;12.15;6.78;;;;;;;17.89;77.58;100493.19;5083637;28;20530;-66
2021/08/11 09:37:36;;;;;;;16.98;6.85;;;;;;;17.94;77.64;100486.81;5083602;28;20100;-66
2021/08/11 09:40:17;;;;;;;12.57;6.28;;;;;;;17.99;77.57;100489.28;5083465;28;20026;-66
2021/08/11 09:42:45;;;;;;;22.55;7.10;;;;;;;18.08;77.80;100490.69;5082919;28;20035;-66
2021/08/11 09:45:11;;;;;;;10.77;5.75;;;;;;;18.51;78.67;100492.56;5082219;28;20032;-67
2021/08/11 09:47:38;;;;;;;8.48;4.13;;;;;;;19.65;77.54;100487.81;5083549;28;20020;-68
2021/08/11 09:50:10;;;;;;;10.48;4.07;;;;;;;20.36;74.88;100490.72;5083538;28;20074;-68
2021/08/11 09:52:49;;;;;;;8.95;3.25;;;;;;;21.45;74.45;100489.72;5081915;28;20103;-69
2021/08/11 09:55:16;;;;;;;9.80;3.50;;;;;;;22.22;70.90;100492.59;5083117;28;20021;-69
2021/08/11 09:57:43;;;;;;;6.72;3.00;;;;;;;22.71;68.45;100497.84;5081921;28;20021;-69
2021/08/11 10:00:13;;;;;;;6.68;3.03;;;;;;;23.73;66.45;100485.59;5083042;28;20029;-69
2021/08/11 10:02:39;;;;;;;7.80;2.72;;;;;;;25.03;60.77;100487.91;5083144;28;20028;-69
2021/08/11 10:05:05;;;;;;;5.18;2.38;;;;;;;25.31;59.30;100493.94;5081752;28;20032;-69
2021/08/11 10:07:30;;;;;;;3.63;2.22;;;;;;;25.31;58.21;100482.44;5083171;28;20055;-69
2021/08/11 10:10:06;;;;;;;5.50;2.97;;;;;;;25.20;56.58;100497.34;5083190;28;20024;-69
2021/08/11 10:12:34;;;;;;;5.35;2.47;;;;;;;24.69;55.73;100498.09;5081857;28;20245;-70
2021/08/11 10:15:02;;;;;;;4.75;2.60;;;;;;;23.88;56.05;100496.19;5083082;28;20021;-70
2021/08/11 10:17:34;;;;;;;5.93;3.00;;;;;;;23.19;57.50;100491.53;5082736;28;20487;-68
2021/08/11 10:20:03;;;;;;;5.05;2.10;;;;;;;22.98;57.87;100502.47;5082921;28;20021;-69
2021/08/11 10:22:28;;;;;;;5.75;2.70;;;;;;;23.11;58.41;100495.50;5082945;28;20029;-68
2021/08/11 10:24:55;;;;;;;9.15;2.60;;;;;;;24.09;58.04;100493.09;5082960;28;20121;-69
2021/08/11 10:27:21;;;;;;;5.22;2.45;;;;;;;25.18;55.12;100501.91;5083049;28;20032;-68
2021/08/11 10:29:47;;;;;;;6.35;2.47;;;;;;;26.14;52.33;100504.09;5083090;28;20023;-66
2021/08/11 10:32:13;;;;;;;5.88;2.50;;;;;;;26.56;50.82;100502.88;5082578;28;20084;-66
2021/08/11 10:34:39;;;;;;;4.38;2.70;;;;;;;27.10;50.60;100505.97;5082902;28;20020;-66
2021/08/11 10:37:05;;;;;;;6.22;2.10;;;;;;;27.78;47.85;100504.31;5082729;28;20038;-66
2021/08/11 10:39:31;;;;;;;4.55;2.13;;;;;;;28.33;44.39;100501.66;5081784;28;20048;-66
2021/08/11 10:42:01;;;;;;;7.78;2.75;;;;;;;28.56;44.43;100506.03;5081596;28;20028;-66
2021/08/11 10:44:27;;;;;;;10.48;2.40;;;;;;;28.14;44.54;100502.28;5083074;28;20047;-66
2021/08/11 10:46:53;;;;;;;5.72;2.58;;;;;;;28.00;45.73;100503.41;5082505;28;20020;-66
2021/08/11 10:49:19;;;;;;;5.15;2.03;;;;;;;28.14;43.25;100502.28;5081840;28;20048;-66
2021/08/11 10:51:49;;;;;;;3.95;1.55;;;;;;;28.12;42.85;100509.56;5082652;28;20039;-69
2021/08/11 10:54:16;;;;;;;3.45;1.75;;;;;;;28.08;42.06;100508.13;5081651;28;20024;-67
2021/08/11 10:56:48;;;;;;;4.25;1.98;;;;;;;28.10;42.47;100516.84;5084676;28;20024;-66
2021/08/11 10:59:23;;;;;;;4.65;2.10;;;;;;;28.28;41.67;100516.31;5086329;28;20020;-66
2021/08/11 11:01:49;;;;;;;5.18;2.20;;;;;;;28.24;42.47;100518.41;5084824;28;20035;-67
2021/08/11 11:04:37;;;;;;;3.63;1.83;;;;;;;28.40;44.07;100523.34;5084640;28;20033;-66
2021/08/11 11:07:12;;;;;;;5.65;2.35;;;;;;;28.10;43.40;100524.84;5086315;28;20021;-67
2021/08/11 11:09:44;;;;;;;8.20;2.45;;;;;;;27.36;44.44;100516.41;5086243;28;20022;-66
2021/08/11 11:12:15;;;;;;;7.10;2.40;;;;;;;26.98;44.60;100521.88;5086026;28;20051;-66
2021/08/11 11:14:54;;;;;;;6.50;2.30;;;;;;;26.76;44.51;100529.81;5086088;28;20020;-66